Airfield :
LOGIN :

Register | Disclaimer

   EN    FR    IT 

 










Legend :    VFR   Marginal VFR   IFR   Intensive IFR   Very Intensive IFR
Visi :
Ceiling :
>= 8 km
>= 3000ft
5 to 8 km
1000 to 3000 ft
1500m to 5 km
500 to 1000 ft
800 to 1500m
200 to 500 ft
< 800m
< 200 ft
Symbols :   Thunderstorms  Fog  Heavy snow  Heavy precipitations  Wind > 20 kt
SIGMETs :     Misc.  Thunderstorms  Icing  Turbulence  Mountain Waves  Volcanic Ashes






- Airport Elevation : 535 ft


LFBF - Toulouse / Francazal

CURRENT METAR :
  • 070830Z AUTO 10006KT 070V140 9999 FEW016 17/15 Q1024

EXPIRED METARs :
  • 070800Z AUTO 13004KT 070V180 CAVOK 16/14 Q1024
  • 070730Z AUTO 10003KT CAVOK 15/14 Q1024
  • 070700Z AUTO VRB01KT 9999 FEW017 12/12 Q1024
  • 070630Z AUTO 36001KT 9999 FEW001 11/11 Q1024
  • 070600Z AUTO 00000KT 4500 0800 R11/P2000 R29/1000D BCFG FEW001 SCT005 BKN220 12/11 Q1024

TAF N/A



MET'MAP, your aeronautical weather chart ! - Copyright ORBIFLY December 2007 - Disclaimer

ORBIFLY MET'MAP TEAM :

Programming & Development : Alexandra Zaïnal
Original concept : Baudouin d'Aumeries
Technical & hardware support : Manuel Goepfert
Assistance : Marc-Olivier Méhu




SOURCES & CREDITS :

   NOAA